Time;durP1;ratioP1;P1;durP2;ratioP2;P2;SDS_P1;SDS_P2;PMS_P1;PMS_P2;Temp;Humidity;BMP_temperature;BMP_pressure;BME280_temperature;BME280_humidity;BME280_pressure;Samples;Min_cycle;Max_cycle;Signal;HPM_P1;HPM_P2
2022/01/25 00:24:23;;;;;;;9.83;6.50;;;3.10;99.90;;;;;;5051864;28;20453;-69
2022/01/25 00:28:04;;;;;;;10.57;6.93;;;3.20;99.90;;;;;;5050071;28;20489;-68
2022/01/25 00:32:12;;;;;;;11.87;6.30;;;3.10;99.90;;;;;;5051576;28;20964;-69
2022/01/25 00:34:39;;;;;;;11.63;6.20;;;3.10;99.90;;;;;;5051892;28;20224;-69
2022/01/25 00:37:05;;;;;;;12.43;6.20;;;3.10;99.90;;;;;;5033510;28;20451;-70
2022/01/25 00:39:31;;;;;;;8.53;5.57;;;3.10;99.90;;;;;;5037833;28;20477;-69
2022/01/25 00:41:57;;;;;;;7.83;5.67;;;3.10;99.90;;;;;;5061940;28;20459;-69
2022/01/25 00:44:24;;;;;;;6.60;5.20;;;3.10;99.90;;;;;;5043457;28;20478;-70
2022/01/25 00:46:50;;;;;;;11.23;6.40;;;3.10;99.90;;;;;;5044021;28;20451;-69
2022/01/25 00:49:26;;;;;;;9.20;5.53;;;3.10;99.90;;;;;;5033680;28;20450;-69
2022/01/25 00:56:46;;;;;;;10.53;5.57;;;3.10;99.90;;;;;;5051446;28;20469;-70
2022/01/25 00:59:18;;;;;;;8.20;6.10;;;3.10;99.90;;;;;;5041331;28;20444;-69
2022/01/25 01:01:45;;;;;;;9.83;6.77;;;3.10;99.90;;;;;;5050738;28;20498;-69
2022/01/25 01:04:11;;;;;;;11.53;6.40;;;3.00;99.90;;;;;;5038078;28;20894;-69
2022/01/25 01:06:38;;;;;;;11.03;5.80;;;3.00;99.90;;;;;;5033446;28;20549;-68
2022/01/25 01:09:08;;;;;;;10.60;6.40;;;3.00;99.90;;;;;;5033205;28;20224;-68
2022/01/25 01:11:40;;;;;;;14.80;7.73;;;3.10;99.90;;;;;;5048242;28;20446;-69
2022/01/25 01:33:20;;;;;;;12.47;7.00;;;3.00;99.90;;;;;;5050902;28;20472;-69
2022/01/25 01:41:42;;;;;;;11.40;6.30;;;3.00;99.90;;;;;;5024296;28;20478;-68
2022/01/25 01:44:10;;;;;;;11.37;6.23;;;3.00;99.90;;;;;;5027485;28;20463;-70
2022/01/25 01:49:03;;;;;;;11.00;6.80;;;3.00;99.90;;;;;;5048916;28;20802;-70
2022/01/25 01:51:34;;;;;;;11.60;6.80;;;3.00;99.90;;;;;;5050805;28;20250;-69
2022/01/25 01:54:03;;;;;;;11.10;7.07;;;2.90;99.90;;;;;;5066017;28;20486;-70
2022/01/25 01:56:29;;;;;;;8.50;5.63;;;2.90;99.90;;;;;;5044096;28;20526;-69
2022/01/25 01:58:57;;;;;;;11.30;6.60;;;2.90;99.90;;;;;;5031360;28;20600;-70
2022/01/25 02:01:25;;;;;;;9.60;6.10;;;3.00;99.90;;;;;;5038093;28;20306;-68
2022/01/25 02:03:52;;;;;;;11.43;7.67;;;2.90;99.90;;;;;;5048991;28;20517;-69
2022/01/25 02:06:18;;;;;;;9.70;6.90;;;2.90;99.90;;;;;;5030852;28;20822;-68
2022/01/25 02:08:44;;;;;;;11.17;6.67;;;2.90;99.90;;;;;;5045754;28;20469;-69
2022/01/25 02:11:11;;;;;;;16.37;6.20;;;2.90;99.90;;;;;;5065336;28;20455;-69
2022/01/25 02:13:40;;;;;;;9.40;6.00;;;2.90;99.90;;;;;;5030364;28;20294;-69
2022/01/25 02:16:08;;;;;;;14.80;6.90;;;2.90;99.90;;;;;;5030018;28;20455;-68
2022/01/25 02:24:03;;;;;;;15.13;8.23;;;2.80;99.90;;;;;;5030039;28;20465;-69
2022/01/25 02:26:29;;;;;;;10.73;6.57;;;2.80;99.90;;;;;;5040045;28;20504;-69
2022/01/25 02:28:54;;;;;;;9.07;5.70;;;2.80;99.90;;;;;;5050040;28;20474;-69
2022/01/25 02:31:20;;;;;;;11.30;7.67;;;2.80;99.90;;;;;;5043985;28;20247;-69
2022/01/25 02:33:47;;;;;;;13.83;7.17;;;2.80;99.90;;;;;;5065312;28;20245;-69
2022/01/25 02:36:22;;;;;;;13.57;6.53;;;2.80;99.90;;;;;;5048271;28;20224;-68
2022/01/25 02:38:47;;;;;;;16.43;7.00;;;2.80;99.90;;;;;;5031710;28;20496;-68
2022/01/25 02:41:13;;;;;;;13.47;7.80;;;2.70;99.90;;;;;;5049032;28;20540;-69
2022/01/25 02:43:42;;;;;;;14.63;7.80;;;2.80;99.90;;;;;;5047562;28;20273;-69
2022/01/25 02:46:23;;;;;;;15.07;7.53;;;2.70;99.90;;;;;;5061478;28;20219;-69
2022/01/25 02:48:56;;;;;;;11.30;7.20;;;2.70;99.90;;;;;;5050249;28;20517;-68
2022/01/25 02:51:26;;;;;;;12.17;6.40;;;2.70;99.90;;;;;;5049302;28;20458;-69
2022/01/25 02:53:53;;;;;;;14.33;7.13;;;2.70;99.90;;;;;;5057264;28;20488;-69
2022/01/25 02:56:19;;;;;;;10.23;6.37;;;2.70;99.90;;;;;;5052914;28;20500;-68
2022/01/25 02:58:45;;;;;;;8.90;6.10;;;2.70;99.90;;;;;;5053768;28;20541;-69
2022/01/25 03:01:12;;;;;;;9.50;6.40;;;2.70;99.90;;;;;;5061262;28;20470;-69
2022/01/25 03:03:37;;;;;;;12.90;7.10;;;2.60;99.90;;;;;;5057872;28;20514;-67
2022/01/25 03:06:04;;;;;;;12.50;6.77;;;2.60;99.90;;;;;;5054770;28;20458;-70
2022/01/25 03:08:31;;;;;;;12.77;7.13;;;2.60;99.90;;;;;;5035683;28;20845;-68
2022/01/25 03:10:56;;;;;;;14.37;7.90;;;2.60;99.90;;;;;;5053716;28;20454;-69
2022/01/25 03:13:32;;;;;;;11.33;7.10;;;2.60;99.90;;;;;;5046475;28;20430;-69
2022/01/25 03:16:03;;;;;;;10.27;6.20;;;2.60;99.90;;;;;;5055220;28;20249;-69
2022/01/25 03:23:41;;;;;;;10.70;6.50;;;2.60;99.90;;;;;;5046772;28;20543;-70
2022/01/25 03:26:07;;;;;;;10.83;6.70;;;2.60;99.90;;;;;;5055763;28;20458;-68
2022/01/25 03:28:33;;;;;;;11.50;5.97;;;2.60;99.90;;;;;;5053201;28;20458;-69
2022/01/25 03:30:59;;;;;;;11.00;6.80;;;2.60;99.90;;;;;;5048245;28;20220;-69
2022/01/25 03:33:25;;;;;;;15.50;7.90;;;2.60;99.90;;;;;;5067758;28;20303;-69
2022/01/25 03:35:51;;;;;;;12.90;7.13;;;2.60;99.90;;;;;;5052547;28;20223;-69
2022/01/25 03:38:17;;;;;;;19.00;9.80;;;2.60;99.90;;;;;;5052613;28;20285;-69
2022/01/25 03:40:44;;;;;;;13.27;6.37;;;2.60;99.90;;;;;;5051545;28;20228;-69
2022/01/25 03:43:10;;;;;;;13.37;8.43;;;2.60;99.90;;;;;;5034533;28;20430;-69
2022/01/25 03:45:39;;;;;;;17.93;9.70;;;2.60;99.90;;;;;;5046416;28;20959;-69
2022/01/25 03:50:41;;;;;;;14.47;9.50;;;2.50;99.90;;;;;;5053077;28;20466;-69
2022/01/25 03:53:08;;;;;;;11.17;7.20;;;2.40;99.90;;;;;;5051199;28;20537;-69
2022/01/25 03:55:34;;;;;;;10.20;6.73;;;2.50;99.90;;;;;;5044476;28;20467;-69
2022/01/25 03:57:59;;;;;;;11.47;7.63;;;2.50;99.90;;;;;;5051521;28;20978;-69
2022/01/25 04:00:25;;;;;;;17.10;7.67;;;2.50;99.90;;;;;;5060461;28;20951;-68
2022/01/25 04:02:56;;;;;;;12.33;7.80;;;2.50;99.90;;;;;;5051424;28;20235;-68
2022/01/25 04:05:34;;;;;;;12.77;7.70;;;2.50;99.90;;;;;;5049201;28;20465;-68
2022/01/25 04:07:59;;;;;;;13.30;7.67;;;2.40;99.90;;;;;;5051514;28;21052;-68
2022/01/25 04:10:25;;;;;;;15.53;9.17;;;2.40;99.90;;;;;;5050473;28;20445;-68
2022/01/25 04:12:51;;;;;;;19.97;8.67;;;2.40;99.90;;;;;;5052668;28;20211;-68
2022/01/25 04:15:17;;;;;;;15.60;8.60;;;2.40;99.90;;;;;;5051902;28;20963;-68
2022/01/25 04:17:48;;;;;;;12.87;8.20;;;2.40;99.90;;;;;;5034639;28;20223;-69
2022/01/25 04:20:19;;;;;;;;;;;;;;;;;;;;;
2022/01/25 04:25:24;;;;;;;11.03;6.70;;;2.40;99.90;;;;;;5050505;28;20434;-67
2022/01/25 04:27:50;;;;;;;10.27;7.07;;;2.40;99.90;;;;;;5045962;28;20463;-68
2022/01/25 04:30:15;;;;;;;16.17;8.73;;;2.40;99.90;;;;;;5047739;28;20220;-69
2022/01/25 04:32:58;;;;;;;15.30;9.33;;;2.40;99.90;;;;;;5051684;28;20224;-68
2022/01/25 04:49:10;;;;;;;17.83;9.10;;;2.30;99.90;;;;;;5050246;28;20508;-70
2022/01/25 04:54:13;;;;;;;17.80;8.70;;;2.30;99.90;;;;;;5051310;28;20462;-69
2022/01/25 04:59:13;;;;;;;17.03;8.87;;;2.30;99.90;;;;;;5050310;28;20485;-69
2022/01/25 05:01:40;;;;;;;19.50;9.60;;;2.30;99.90;;;;;;5066185;28;20293;-70
2022/01/25 05:04:11;;;;;;;12.00;7.07;;;2.30;99.90;;;;;;5064166;28;20433;-69
2022/01/25 05:06:38;;;;;;;13.53;7.20;;;2.30;99.90;;;;;;5062004;28;20490;-68
2022/01/25 05:09:12;;;;;;;12.20;7.57;;;2.30;99.90;;;;;;5069588;28;20488;-68
2022/01/25 05:11:44;;;;;;;13.70;7.97;;;2.30;99.90;;;;;;5069387;28;20469;-68
2022/01/25 05:14:18;;;;;;;11.43;6.33;;;2.30;99.90;;;;;;5053074;28;20469;-69
2022/01/25 05:16:50;;;;;;;19.07;9.10;;;2.30;99.90;;;;;;5052119;28;20456;-69
2022/01/25 05:24:28;;;;;;;13.47;7.77;;;2.20;99.90;;;;;;5060868;28;20873;-69
2022/01/25 05:26:54;;;;;;;13.80;9.30;;;2.20;99.90;;;;;;5053216;28;20533;-68
2022/01/25 05:29:20;;;;;;;15.77;8.10;;;2.20;99.90;;;;;;5069666;28;20211;-68
2022/01/25 05:31:47;;;;;;;15.00;9.03;;;2.20;99.90;;;;;;5063299;28;20273;-69
2022/01/25 05:34:13;;;;;;;12.23;8.10;;;2.20;99.90;;;;;;5056613;28;20477;-69
2022/01/25 05:36:39;;;;;;;15.60;8.97;;;2.20;99.90;;;;;;5050829;28;20458;-69
2022/01/25 05:39:11;;;;;;;14.93;7.37;;;2.20;99.90;;;;;;5050406;28;20446;-68
2022/01/25 05:41:39;;;;;;;12.47;6.97;;;2.20;99.90;;;;;;5046721;28;20443;-69
2022/01/25 05:46:43;;;;;;;11.37;7.30;;;2.10;99.90;;;;;;5049254;28;20438;-68
2022/01/25 05:49:08;;;;;;;14.50;8.50;;;2.10;99.90;;;;;;5047324;28;20433;-70
2022/01/25 05:51:34;;;;;;;18.70;8.97;;;2.10;99.90;;;;;;5047985;28;20439;-69
2022/01/25 05:54:00;;;;;;;13.90;9.07;;;2.10;99.90;;;;;;5040333;28;20216;-69
2022/01/25 05:56:26;;;;;;;17.33;9.20;;;2.10;99.90;;;;;;5049543;28;20287;-68
2022/01/25 05:58:52;;;;;;;19.40;9.50;;;2.10;99.90;;;;;;5044595;28;20204;-69
2022/01/25 06:01:19;;;;;;;14.07;7.07;;;2.10;99.90;;;;;;5060420;28;20571;-68
2022/01/25 06:03:45;;;;;;;12.23;6.90;;;2.10;99.90;;;;;;5050262;28;20699;-69
2022/01/25 06:06:12;;;;;;;13.07;8.17;;;2.10;99.90;;;;;;5064110;28;20463;-68
2022/01/25 06:08:38;;;;;;;14.00;7.40;;;2.10;99.90;;;;;;5043359;28;20459;-69
2022/01/25 06:11:04;;;;;;;13.27;7.00;;;2.10;99.90;;;;;;5037726;28;20459;-68
2022/01/25 06:13:30;;;;;;;16.43;8.00;;;2.10;99.90;;;;;;5042464;28;20465;-68
2022/01/25 06:15:57;;;;;;;14.37;7.47;;;2.10;99.90;;;;;;5047965;28;20215;-68
2022/01/25 06:18:23;;;;;;;13.90;7.83;;;2.10;99.90;;;;;;5039679;28;20460;-67
2022/01/25 06:20:49;;;;;;;21.00;8.33;;;2.10;99.90;;;;;;5042283;28;20565;-69
2022/01/25 06:23:14;;;;;;;15.83;8.73;;;2.10;99.90;;;;;;5047968;28;20740;-69
2022/01/25 06:25:41;;;;;;;16.30;8.27;;;2.10;99.90;;;;;;5048447;28;20269;-68
2022/01/25 06:28:07;;;;;;;12.23;8.03;;;2.10;99.90;;;;;;5048309;28;20686;-70
2022/01/25 06:30:33;;;;;;;13.93;8.23;;;2.10;99.90;;;;;;5042655;28;20470;-68
2022/01/25 06:33:00;;;;;;;13.20;8.40;;;2.10;99.90;;;;;;5050067;28;20470;-70
2022/01/25 06:35:30;;;;;;;13.43;8.10;;;2.10;99.90;;;;;;5048004;28;20443;-70
2022/01/25 06:37:55;;;;;;;16.00;8.07;;;2.10;99.90;;;;;;5048676;28;20485;-70
2022/01/25 06:40:23;;;;;;;14.50;8.57;;;2.10;99.90;;;;;;5048238;28;20472;-70
2022/01/25 06:42:49;;;;;;;13.47;9.10;;;2.10;99.90;;;;;;5049368;28;20212;-68
2022/01/25 06:45:18;;;;;;;25.60;12.83;;;2.10;99.90;;;;;;5038947;28;20851;-70
2022/01/25 06:47:45;;;;;;;32.43;19.17;;;2.10;99.90;;;;;;5049606;28;20274;-70
2022/01/25 06:50:12;;;;;;;29.43;18.80;;;2.10;99.90;;;;;;5049789;28;20527;-70
2022/01/25 06:52:40;;;;;;;25.30;16.33;;;2.10;99.90;;;;;;5048780;28;20446;-70
2022/01/25 06:55:08;;;;;;;17.30;12.83;;;2.10;99.90;;;;;;5042323;28;20550;-70
2022/01/25 06:57:34;;;;;;;23.17;14.40;;;2.10;99.90;;;;;;5048262;28;20446;-70
2022/01/25 06:59:59;;;;;;;21.70;12.73;;;2.10;99.90;;;;;;5062286;28;20484;-70
2022/01/25 07:02:25;;;;;;;19.70;10.97;;;2.10;99.90;;;;;;5068518;28;20226;-70
2022/01/25 07:04:51;;;;;;;16.87;11.37;;;2.10;99.90;;;;;;5036831;28;20219;-70
2022/01/25 07:07:17;;;;;;;16.70;9.67;;;2.10;99.90;;;;;;5046579;28;20235;-71
2022/01/25 07:09:42;;;;;;;16.60;9.07;;;2.10;99.90;;;;;;5030330;28;20215;-70
2022/01/25 07:12:08;;;;;;;20.13;10.40;;;2.10;99.90;;;;;;5046962;28;20228;-70
2022/01/25 07:14:34;;;;;;;14.53;7.97;;;2.10;99.90;;;;;;5030160;28;20224;-70
2022/01/25 07:17:00;;;;;;;17.80;8.00;;;2.00;99.90;;;;;;5037901;28;21021;-70
2022/01/25 07:19:26;;;;;;;13.20;8.13;;;2.00;99.90;;;;;;5055680;28;20265;-70
2022/01/25 07:21:53;;;;;;;13.53;8.17;;;2.00;99.90;;;;;;5056555;28;20537;-70
2022/01/25 07:24:18;;;;;;;19.90;10.17;;;2.00;99.90;;;;;;5053553;28;20455;-69
2022/01/25 07:26:45;;;;;;;13.30;7.67;;;2.10;99.90;;;;;;5026953;28;20463;-69
2022/01/25 07:29:10;;;;;;;15.80;9.10;;;2.00;99.90;;;;;;5027708;28;20698;-70
2022/01/25 07:31:36;;;;;;;15.70;12.10;;;2.00;99.90;;;;;;5028575;28;20454;-70
2022/01/25 07:34:02;;;;;;;47.63;22.03;;;2.10;99.90;;;;;;5046898;28;20230;-70
2022/01/25 07:36:28;;;;;;;49.93;24.93;;;2.10;99.90;;;;;;5064251;28;20219;-71
2022/01/25 07:38:54;;;;;;;76.40;29.53;;;2.10;99.90;;;;;;5067285;28;20458;-69
2022/01/25 07:41:21;;;;;;;66.00;32.77;;;2.10;99.90;;;;;;5052767;28;20533;-69
2022/01/25 07:43:47;;;;;;;64.50;30.33;;;2.10;99.90;;;;;;5048823;28;20305;-70
2022/01/25 07:46:15;;;;;;;49.13;21.93;;;2.10;99.90;;;;;;5049406;28;20450;-70
2022/01/25 07:48:41;;;;;;;38.30;19.93;;;2.10;99.90;;;;;;5041582;28;20455;-70
2022/01/25 07:51:07;;;;;;;42.63;17.93;;;2.10;99.90;;;;;;5056241;28;20957;-69
2022/01/25 07:53:32;;;;;;;31.03;15.70;;;2.10;99.90;;;;;;5057194;28;20223;-70
2022/01/25 07:55:58;;;;;;;32.47;14.17;;;2.10;99.90;;;;;;5046151;28;20227;-71
2022/01/25 07:58:24;;;;;;;18.27;11.03;;;2.10;99.90;;;;;;5043081;28;20277;-71
2022/01/25 08:00:50;;;;;;;22.53;11.10;;;2.20;99.90;;;;;;5072892;28;20546;-71
2022/01/25 08:03:19;;;;;;;26.00;11.57;;;2.20;99.90;;;;;;5050002;28;20562;-71
2022/01/25 08:05:45;;;;;;;24.03;10.30;;;2.20;99.90;;;;;;5049913;28;20238;-70
2022/01/25 08:08:12;;;;;;;20.83;11.60;;;2.20;99.90;;;;;;5083377;28;20492;-70
2022/01/25 08:10:38;;;;;;;18.50;11.40;;;2.20;99.90;;;;;;5049357;28;20462;-70
2022/01/25 08:13:03;;;;;;;26.17;12.17;;;2.20;99.90;;;;;;5063880;28;20462;-70
2022/01/25 08:15:29;;;;;;;25.60;13.00;;;2.20;99.90;;;;;;5049746;28;20450;-71
2022/01/25 08:17:55;;;;;;;19.13;12.53;;;2.20;99.90;;;;;;5054376;28;20228;-70
2022/01/25 08:20:21;;;;;;;34.87;16.73;;;2.20;99.90;;;;;;5046010;28;20303;-70
2022/01/25 08:22:47;;;;;;;22.57;13.23;;;2.20;99.90;;;;;;5036826;28;20208;-71
2022/01/25 08:25:13;;;;;;;34.13;14.83;;;2.20;99.90;;;;;;5029683;28;20307;-70
2022/01/25 08:27:39;;;;;;;31.83;14.13;;;2.30;99.90;;;;;;5035461;28;20876;-70
2022/01/25 08:30:06;;;;;;;34.70;15.40;;;2.30;99.90;;;;;;5031513;28;20557;-70
2022/01/25 08:32:31;;;;;;;28.13;12.77;;;2.30;99.90;;;;;;5055724;28;20243;-70
2022/01/25 08:34:58;;;;;;;31.07;14.20;;;2.30;99.90;;;;;;5049734;28;20536;-71
2022/01/25 08:37:24;;;;;;;29.87;13.47;;;2.30;99.90;;;;;;5055128;28;20240;-70
2022/01/25 08:39:51;;;;;;;21.27;12.50;;;2.30;99.90;;;;;;5047094;28;20561;-70
2022/01/25 08:42:17;;;;;;;29.03;13.70;;;2.30;99.90;;;;;;5047550;28;20463;-70
2022/01/25 08:44:43;;;;;;;24.90;11.80;;;2.30;99.90;;;;;;5049585;28;20450;-70
2022/01/25 08:47:09;;;;;;;33.67;13.80;;;2.30;99.90;;;;;;5046608;28;20232;-70
2022/01/25 08:49:35;;;;;;;21.60;12.40;;;2.30;99.90;;;;;;5049569;28;20281;-70
2022/01/25 08:52:01;;;;;;;19.90;11.30;;;2.30;99.90;;;;;;5026123;28;21040;-70
2022/01/25 08:54:27;;;;;;;20.20;9.30;;;2.30;99.90;;;;;;5048496;28;20512;-71
2022/01/25 08:56:53;;;;;;;18.07;9.33;;;2.30;99.90;;;;;;5065253;28;20530;-70
2022/01/25 08:59:20;;;;;;;20.00;10.27;;;2.30;99.90;;;;;;5054559;28;20250;-71
2022/01/25 09:01:46;;;;;;;19.97;11.03;;;2.30;99.90;;;;;;5046788;28;20462;-69
2022/01/25 09:04:12;;;;;;;22.63;11.67;;;2.30;99.90;;;;;;5045338;28;20503;-70
2022/01/25 09:06:38;;;;;;;21.20;9.27;;;2.40;99.90;;;;;;5062306;28;20442;-70
2022/01/25 09:09:07;;;;;;;19.07;9.90;;;2.40;99.90;;;;;;5047244;28;20216;-69
2022/01/25 09:11:34;;;;;;;16.20;9.17;;;2.40;99.90;;;;;;5043354;28;20224;-70
2022/01/25 09:14:00;;;;;;;23.27;11.97;;;2.40;99.90;;;;;;5042906;28;20873;-70
2022/01/25 09:16:26;;;;;;;20.83;11.73;;;2.40;99.90;;;;;;5045503;28;20453;-69
2022/01/25 09:18:51;;;;;;;30.53;15.73;;;2.40;99.90;;;;;;5047727;28;20216;-68
2022/01/25 09:21:17;;;;;;;36.90;17.90;;;2.40;99.90;;;;;;5048577;28;20713;-68
2022/01/25 09:23:43;;;;;;;35.63;16.63;;;2.40;99.90;;;;;;5034079;28;20216;-70
2022/01/25 09:26:09;;;;;;;25.67;16.10;;;2.40;99.90;;;;;;5054137;28;20230;-70
2022/01/25 09:28:36;;;;;;;31.83;13.23;;;2.40;99.90;;;;;;5056228;28;20458;-70
2022/01/25 09:31:02;;;;;;;39.90;17.80;;;2.40;99.90;;;;;;5039954;28;20224;-69
2022/01/25 09:33:28;;;;;;;37.00;18.13;;;2.40;99.90;;;;;;5052419;28;20453;-69
2022/01/25 09:35:55;;;;;;;35.07;14.50;;;2.40;99.90;;;;;;5031559;28;20459;-70
2022/01/25 09:38:23;;;;;;;33.63;13.60;;;2.40;99.90;;;;;;5053920;28;20504;-70
2022/01/25 09:40:49;;;;;;;22.77;11.23;;;2.40;99.90;;;;;;5047720;28;20470;-70
2022/01/25 09:43:16;;;;;;;23.97;12.60;;;2.40;99.90;;;;;;5047859;28;20822;-70
2022/01/25 09:45:42;;;;;;;20.33;11.90;;;2.40;99.90;;;;;;5030094;28;20525;-69
2022/01/25 09:48:09;;;;;;;30.47;11.07;;;2.50;99.90;;;;;;5045353;28;20471;-70
2022/01/25 09:50:36;;;;;;;15.80;9.83;;;2.50;99.90;;;;;;5047681;28;20457;-69
2022/01/25 09:53:04;;;;;;;13.10;9.33;;;2.50;99.90;;;;;;5047481;28;20458;-70
2022/01/25 09:55:41;;;;;;;13.03;8.00;;;2.50;99.90;;;;;;5047022;28;20454;-69
2022/01/25 09:58:09;;;;;;;17.23;10.13;;;2.50;99.90;;;;;;5060198;28;20484;-70
2022/01/25 10:00:38;;;;;;;17.13;9.43;;;2.50;99.90;;;;;;5049182;28;20509;-70
2022/01/25 10:03:12;;;;;;;20.43;11.80;;;2.50;99.90;;;;;;5061748;28;20462;-70
2022/01/25 10:05:42;;;;;;;19.27;10.23;;;2.50;99.90;;;;;;5060221;28;21021;-70
2022/01/25 10:08:25;;;;;;;22.03;11.30;;;2.60;99.90;;;;;;5043153;28;20470;-70
2022/01/25 10:10:58;;;;;;;17.90;11.50;;;2.50;99.90;;;;;;5021204;28;20452;-70
2022/01/25 10:13:25;;;;;;;21.50;11.87;;;2.60;99.90;;;;;;5025333;28;20449;-70
2022/01/25 10:15:52;;;;;;;27.57;13.27;;;2.60;99.90;;;;;;5023826;28;20454;-69
2022/01/25 10:18:18;;;;;;;25.77;13.80;;;2.60;99.90;;;;;;5024805;28;20497;-67
2022/01/25 10:20:47;;;;;;;24.43;13.60;;;2.60;99.90;;;;;;5042448;28;20472;-70
2022/01/25 10:23:24;;;;;;;24.50;13.33;;;2.60;99.90;;;;;;5040745;28;20462;-69
2022/01/25 10:25:50;;;;;;;24.37;12.87;;;2.60;99.90;;;;;;5025797;28;20546;-69
2022/01/25 10:28:22;;;;;;;20.00;11.67;;;2.60;99.90;;;;;;5015542;28;20568;-70
2022/01/25 10:30:54;;;;;;;25.20;13.67;;;2.60;99.90;;;;;;5030120;28;20486;-68
2022/01/25 10:33:31;;;;;;;17.37;11.70;;;2.60;99.90;;;;;;5046799;28;20450;-70
2022/01/25 10:36:01;;;;;;;22.63;11.90;;;2.60;99.90;;;;;;5047551;28;20479;-70
2022/01/25 10:38:32;;;;;;;17.30;10.07;;;2.60;99.90;;;;;;5029159;28;20987;-69
2022/01/25 10:41:05;;;;;;;19.30;11.57;;;2.60;99.90;;;;;;5047189;28;21011;-71
2022/01/25 10:43:32;;;;;;;20.20;12.70;;;2.60;99.90;;;;;;5057111;28;20461;-68
2022/01/25 10:46:16;;;;;;;21.10;12.00;;;2.70;99.90;;;;;;5041939;28;20460;-69
2022/01/25 10:48:48;;;;;;;23.87;13.93;;;2.70;99.90;;;;;;5028113;28;20469;-70
2022/01/25 10:51:21;;;;;;;29.47;19.00;;;2.70;99.90;;;;;;5044913;28;20532;-70
2022/01/25 10:53:58;;;;;;;30.63;17.90;;;2.70;99.90;;;;;;5038063;28;20457;-70
2022/01/25 10:56:25;;;;;;;25.90;15.40;;;2.70;99.90;;;;;;5047761;28;20437;-69
2022/01/25 10:58:50;;;;;;;23.57;14.10;;;2.70;99.90;;;;;;5064819;28;20453;-70
2022/01/25 11:01:34;;;;;;;23.40;13.50;;;2.70;99.90;;;;;;5063975;28;20468;-70
2022/01/25 11:04:09;;;;;;;18.67;11.83;;;2.70;99.90;;;;;;5054054;28;20246;-71
2022/01/25 11:06:36;;;;;;;24.20;11.60;;;2.70;99.90;;;;;;5043908;28;20469;-68
2022/01/25 11:09:05;;;;;;;22.27;11.80;;;2.80;99.90;;;;;;5022909;28;20450;-69
2022/01/25 11:11:37;;;;;;;22.23;11.07;;;2.80;99.90;;;;;;5041759;28;20907;-70
2022/01/25 11:16:49;;;;;;;14.63;9.90;;;2.80;99.90;;;;;;5057600;28;20453;-69
2022/01/25 11:19:18;;;;;;;18.70;9.90;;;2.80;99.90;;;;;;5050406;28;20518;-70
2022/01/25 11:21:44;;;;;;;20.00;10.13;;;2.80;99.90;;;;;;5052517;28;20473;-68
2022/01/25 11:24:13;;;;;;;22.07;9.43;;;2.80;99.90;;;;;;5047941;28;20489;-70
2022/01/25 11:26:42;;;;;;;19.20;10.00;;;2.80;99.90;;;;;;5054776;28;20453;-70
2022/01/25 11:29:08;;;;;;;14.20;8.43;;;2.80;99.90;;;;;;5062840;28;20465;-70
2022/01/25 11:31:35;;;;;;;15.17;9.17;;;2.90;99.90;;;;;;5063622;28;20469;-70
2022/01/25 11:34:02;;;;;;;21.00;9.20;;;2.90;99.90;;;;;;5064629;28;20569;-70
2022/01/25 11:36:31;;;;;;;17.63;9.30;;;2.90;99.90;;;;;;5068947;28;20462;-70
2022/01/25 11:38:57;;;;;;;17.37;8.40;;;2.90;99.90;;;;;;5068208;28;20469;-69
2022/01/25 11:41:25;;;;;;;16.47;9.30;;;2.90;99.90;;;;;;5063636;28;20485;-69
2022/01/25 11:44:07;;;;;;;17.03;7.23;;;2.90;99.90;;;;;;5068431;28;20223;-69
2022/01/25 11:46:39;;;;;;;17.20;7.90;;;3.00;99.90;;;;;;5065730;28;20460;-70
2022/01/25 11:49:14;;;;;;;15.17;7.90;;;3.00;99.90;;;;;;5067063;28;20834;-70
2022/01/25 11:51:42;;;;;;;17.57;8.97;;;3.00;99.90;;;;;;5063801;28;20840;-70
2022/01/25 11:54:09;;;;;;;16.83;8.57;;;3.00;99.90;;;;;;5051123;28;20511;-71
2022/01/25 11:56:38;;;;;;;13.70;7.10;;;3.00;99.90;;;;;;5066843;28;20491;-70
2022/01/25 11:59:05;;;;;;;23.83;9.23;;;3.00;99.90;;;;;;5066860;28;20995;-70
2022/01/25 12:01:35;;;;;;;17.47;9.23;;;3.00;99.90;;;;;;5053471;28;20986;-69
2022/01/25 12:04:07;;;;;;;19.60;8.80;;;3.00;99.90;;;;;;5071119;28;20515;-70
2022/01/25 12:06:41;;;;;;;21.87;10.17;;;3.00;99.90;;;;;;5065409;28;20448;-70
2022/01/25 12:09:31;;;;;;;20.87;10.10;;;3.00;99.90;;;;;;5084579;28;20554;-70
2022/01/25 12:12:07;;;;;;;20.10;10.00;;;3.00;99.90;;;;;;5068074;28;20461;-70
2022/01/25 12:14:46;;;;;;;27.17;12.60;;;3.00;99.90;;;;;;5051066;28;20445;-68
2022/01/25 12:17:17;;;;;;;40.83;19.87;;;3.00;99.90;;;;;;5049390;28;20546;-70
2022/01/25 12:19:48;;;;;;;34.93;19.43;;;3.00;99.90;;;;;;5066066;28;20466;-70
2022/01/25 12:22:40;;;;;;;32.30;17.40;;;3.00;99.90;;;;;;5050201;28;20465;-70
2022/01/25 12:25:32;;;;;;;37.00;17.90;;;3.00;99.90;;;;;;5045977;28;20512;-69
2022/01/25 12:28:08;;;;;;;26.70;14.97;;;3.00;99.90;;;;;;5051246;28;20465;-69
2022/01/25 12:30:43;;;;;;;24.77;14.53;;;3.00;99.90;;;;;;5066869;28;20457;-70
2022/01/25 12:33:10;;;;;;;31.87;16.90;;;3.00;99.90;;;;;;5066044;28;20526;-70
2022/01/25 12:35:42;;;;;;;33.10;17.87;;;3.00;99.90;;;;;;5043811;28;20539;-67
2022/01/25 12:38:15;;;;;;;37.63;19.07;;;3.00;99.90;;;;;;5010513;28;20459;-70
2022/01/25 12:40:53;;;;;;;38.30;18.77;;;2.90;99.90;;;;;;5011179;28;20463;-70
2022/01/25 12:43:21;;;;;;;40.53;19.20;;;2.90;99.90;;;;;;5026983;28;21016;-70
2022/01/25 12:45:55;;;;;;;30.20;15.37;;;3.00;99.90;;;;;;5031665;28;20478;-70
2022/01/25 12:48:27;;;;;;;22.17;13.50;;;3.00;99.90;;;;;;5044703;28;20480;-69
2022/01/25 12:50:55;;;;;;;28.30;15.67;;;3.00;99.90;;;;;;5062370;28;20466;-71
2022/01/25 12:53:24;;;;;;;39.87;16.30;;;3.00;99.90;;;;;;5044712;28;20897;-69
2022/01/25 12:55:55;;;;;;;64.33;29.77;;;3.00;99.90;;;;;;5048185;28;20449;-70
2022/01/25 12:58:23;;;;;;;32.77;20.23;;;3.00;99.90;;;;;;5047782;28;20458;-70
2022/01/25 13:00:52;;;;;;;28.77;17.77;;;3.00;99.90;;;;;;5058222;28;20467;-70
2022/01/25 13:03:29;;;;;;;26.17;14.90;;;3.00;99.90;;;;;;5048049;28;20449;-69
2022/01/25 13:05:57;;;;;;;25.00;14.23;;;3.00;99.90;;;;;;5051168;28;20450;-70
2022/01/25 13:08:27;;;;;;;26.27;12.43;;;3.00;99.90;;;;;;5048775;28;20465;-69
2022/01/25 13:11:13;;;;;;;27.43;13.83;;;3.00;99.90;;;;;;5032024;28;20461;-70
2022/01/25 13:16:38;;;;;;;26.77;13.33;;;3.00;99.90;;;;;;5067112;28;20587;-69
2022/01/25 13:19:05;;;;;;;18.30;10.10;;;3.00;99.90;;;;;;5051052;28;20453;-69
2022/01/25 13:21:45;;;;;;;24.70;10.47;;;3.10;99.90;;;;;;5067567;28;20458;-70
2022/01/25 13:24:15;;;;;;;20.27;10.33;;;3.00;99.90;;;;;;5043030;28;20471;-68
2022/01/25 13:26:59;;;;;;;20.07;10.47;;;3.10;99.90;;;;;;5031429;28;20515;-70
2022/01/25 13:32:30;;;;;;;26.63;12.27;;;3.10;99.90;;;;;;5032239;28;20463;-69
2022/01/25 13:35:13;;;;;;;29.10;10.90;;;3.10;99.90;;;;;;5029845;28;20508;-70
2022/01/25 13:37:39;;;;;;;24.43;11.00;;;3.10;99.90;;;;;;5027353;28;20526;-69
2022/01/25 13:40:06;;;;;;;25.53;10.60;;;3.10;99.90;;;;;;5039297;28;20485;-69
2022/01/25 13:43:08;;;;;;;24.40;12.00;;;3.10;99.90;;;;;;5044680;28;20503;-69
2022/01/25 13:45:47;;;;;;;22.17;11.40;;;3.10;99.90;;;;;;5048315;28;20462;-69
2022/01/25 13:48:19;;;;;;;39.30;17.27;;;3.10;99.90;;;;;;5048842;28;20465;-70
2022/01/25 13:50:45;;;;;;;37.23;17.80;;;3.20;99.90;;;;;;5042861;28;20992;-70
2022/01/25 13:53:11;;;;;;;25.30;12.97;;;3.20;99.90;;;;;;5044166;28;20464;-70
2022/01/25 13:55:46;;;;;;;20.33;11.37;;;3.20;99.90;;;;;;5048075;28;20451;-69
2022/01/25 13:58:31;;;;;;;33.80;15.90;;;3.20;99.90;;;;;;5034728;28;20463;-70
2022/01/25 14:01:00;;;;;;;27.00;13.83;;;3.20;99.90;;;;;;5059121;28;20458;-70
2022/01/25 14:03:31;;;;;;;32.30;15.70;;;3.20;99.90;;;;;;5065773;28;20445;-70
2022/01/25 14:05:58;;;;;;;27.50;13.97;;;3.20;99.90;;;;;;5051064;28;20845;-70
2022/01/25 14:08:42;;;;;;;40.37;17.47;;;3.20;99.90;;;;;;5067327;28;20549;-68
2022/01/25 14:11:28;;;;;;;33.50;15.40;;;3.20;99.90;;;;;;5058087;28;20547;-69
2022/01/25 14:22:29;;;;;;;;;;;;;;;;;;;;;
2022/01/25 14:24:36;;;;;;;91.63;38.10;;;3.20;99.90;;;;;;5056079;28;20460;-68
2022/01/25 14:27:26;;;;;;;60.73;27.17;;;3.20;99.90;;;;;;5034518;28;20562;-70
2022/01/25 14:29:53;;;;;;;40.40;20.90;;;3.20;99.90;;;;;;5052793;28;21011;-69
2022/01/25 14:32:35;;;;;;;35.13;18.00;;;3.20;99.90;;;;;;5055883;28;20473;-69
2022/01/25 14:35:12;;;;;;;37.90;18.10;;;3.30;99.90;;;;;;5046929;28;20458;-70
2022/01/25 14:37:46;;;;;;;26.60;13.10;;;3.30;99.90;;;;;;5057667;28;20453;-69
2022/01/25 14:40:13;;;;;;;31.73;13.10;;;3.30;99.90;;;;;;5067842;28;20514;-69
2022/01/25 14:42:40;;;;;;;23.77;13.67;;;3.30;99.90;;;;;;5069034;28;20464;-70
2022/01/25 14:45:12;;;;;;;28.70;14.30;;;3.30;99.90;;;;;;5050086;28;20442;-70
2022/01/25 14:47:40;;;;;;;29.50;14.73;;;3.30;99.90;;;;;;5062125;28;20487;-70
2022/01/25 14:50:14;;;;;;;24.53;10.87;;;3.30;99.90;;;;;;5050879;28;20830;-68
2022/01/25 14:52:40;;;;;;;22.63;11.50;;;3.30;99.90;;;;;;5066275;28;20512;-69